createdAt,value
2023-01-17T00:02:12.834Z,23.98
2023-01-17T00:04:59.511Z,20.80
2023-01-17T00:07:54.920Z,20.15
2023-01-17T00:10:25.751Z,19.70
2023-01-17T00:12:56.343Z,22.27
2023-01-17T00:15:25.197Z,22.82
2023-01-17T00:17:54.562Z,26.12
2023-01-17T00:20:46.554Z,26.05
2023-01-17T00:23:40.335Z,24.00
2023-01-17T00:26:17.182Z,24.75
2023-01-17T00:28:46.101Z,24.30
2023-01-17T00:31:15.457Z,27.05
2023-01-17T00:33:45.627Z,24.98
2023-01-17T00:36:16.768Z,22.67
2023-01-17T00:38:44.327Z,23.90
2023-01-17T00:41:15.585Z,25.30
2023-01-17T00:44:02.950Z,25.70
2023-01-17T00:46:49.384Z,25.43
2023-01-17T00:49:35.617Z,27.30
2023-01-17T00:52:21.559Z,27.73
2023-01-17T00:55:08.249Z,28.85
2023-01-17T00:57:55.486Z,39.70
2023-01-17T01:00:42.368Z,46.10
2023-01-17T01:03:30.234Z,46.18
2023-01-17T01:06:16.485Z,43.17
2023-01-17T01:09:02.417Z,46.90
2023-01-17T01:11:49.402Z,49.15
2023-01-17T01:14:38.158Z,40.80
2023-01-17T01:17:28.250Z,40.43
2023-01-17T01:20:15.256Z,38.17
2023-01-17T01:23:01.544Z,40.08
2023-01-17T01:25:48.301Z,52.70
2023-01-17T01:28:34.570Z,47.90
2023-01-17T01:31:23.362Z,49.38
2023-01-17T01:33:52.161Z,47.48
2023-01-17T01:36:23.111Z,49.67
2023-01-17T01:38:50.954Z,48.63
2023-01-17T01:41:19.208Z,60.67
2023-01-17T01:43:52.822Z,53.40
2023-01-17T01:46:27.892Z,50.97
2023-01-17T01:48:58.052Z,53.48
2023-01-17T01:51:32.950Z,52.95
2023-01-17T01:54:04.454Z,60.30
2023-01-17T01:56:33.416Z,55.85
2023-01-17T01:59:04.362Z,53.60
2023-01-17T02:01:34.335Z,53.50
2023-01-17T02:04:03.257Z,59.40
2023-01-17T02:06:34.977Z,57.75
2023-01-17T02:09:06.687Z,60.40
2023-01-17T02:11:36.876Z,62.85
2023-01-17T02:14:05.220Z,65.30
2023-01-17T02:16:56.983Z,65.55
2023-01-17T02:19:46.333Z,59.20
2023-01-17T02:22:46.867Z,64.80
2023-01-17T02:25:34.884Z,66.07
2023-01-17T02:28:23.357Z,68.65
2023-01-17T02:30:58.380Z,63.13
2023-01-17T02:33:33.343Z,66.47
2023-01-17T02:36:21.573Z,68.15
2023-01-17T02:39:02.869Z,70.65
2023-01-17T02:41:34.516Z,70.22
2023-01-17T02:44:03.747Z,61.98
2023-01-17T02:46:31.481Z,67.35
2023-01-17T02:49:01.764Z,68.78
2023-01-17T02:51:33.243Z,67.15
2023-01-17T02:54:26.619Z,65.85
2023-01-17T02:57:16.143Z,66.00
2023-01-17T02:59:47.649Z,67.80
2023-01-17T03:02:28.308Z,67.00
2023-01-17T03:05:03.369Z,66.75
2023-01-17T03:07:33.628Z,66.17
2023-01-17T03:10:03.898Z,63.78
2023-01-17T03:12:34.010Z,62.50
2023-01-17T03:15:01.859Z,60.23
2023-01-17T03:17:32.759Z,62.85
2023-01-17T03:20:00.567Z,64.00
2023-01-17T03:22:29.179Z,62.55
2023-01-17T03:24:57.980Z,59.73
2023-01-17T03:27:34.450Z,62.03
2023-01-17T03:30:02.333Z,64.30
2023-01-17T03:32:31.113Z,68.15
2023-01-17T03:34:58.891Z,61.28
2023-01-17T03:37:26.825Z,55.75
2023-01-17T03:40:03.018Z,57.67
2023-01-17T03:42:31.008Z,63.78
2023-01-17T03:44:58.907Z,59.45
2023-01-17T03:47:26.411Z,57.67
2023-01-17T03:49:54.535Z,60.15
2023-01-17T03:52:22.561Z,57.25
2023-01-17T03:54:50.670Z,57.67
2023-01-17T03:57:19.022Z,61.20
2023-01-17T03:59:47.822Z,55.92
2023-01-17T04:02:15.661Z,62.13
2023-01-17T04:04:43.454Z,55.38
2023-01-17T04:07:31.065Z,59.40
2023-01-17T04:10:02.121Z,63.75
2023-01-17T04:12:32.608Z,60.28
2023-01-17T04:15:00.377Z,60.20
2023-01-17T04:17:27.965Z,56.77
2023-01-17T04:19:55.964Z,52.48
2023-01-17T04:22:23.485Z,45.83
2023-01-17T04:24:51.338Z,47.95
2023-01-17T04:27:19.117Z,46.10
2023-01-17T04:29:46.947Z,44.40
2023-01-17T04:32:17.848Z,43.02
2023-01-17T04:34:45.825Z,38.28
2023-01-17T04:37:34.057Z,32.35
2023-01-17T04:40:01.906Z,30.90
2023-01-17T04:42:29.823Z,32.95
2023-01-17T04:44:57.862Z,33.02
2023-01-17T04:47:25.709Z,31.77
2023-01-17T04:49:53.887Z,36.77
2023-01-17T04:52:22.018Z,35.65
2023-01-17T04:54:49.930Z,35.73
2023-01-17T04:57:18.583Z,39.15
2023-01-17T04:59:47.121Z,39.23
2023-01-17T05:02:15.568Z,41.08
2023-01-17T05:04:44.306Z,45.12
2023-01-17T05:07:13.474Z,49.45
2023-01-17T05:09:41.213Z,50.08
2023-01-17T05:12:12.362Z,48.95
2023-01-17T05:14:39.893Z,45.25
2023-01-17T05:17:08.251Z,42.70
2023-01-17T05:19:36.268Z,36.75
2023-01-17T05:22:09.166Z,35.48
2023-01-17T05:24:37.441Z,35.85
2023-01-17T05:27:06.387Z,34.48
2023-01-17T05:29:33.777Z,34.78
2023-01-17T05:32:01.445Z,34.43
2023-01-17T05:34:29.312Z,37.58
2023-01-17T05:36:57.146Z,34.05
2023-01-17T05:39:24.849Z,85.42
2023-01-17T05:41:53.343Z,61.83
2023-01-17T05:44:21.746Z,38.05
2023-01-17T05:46:49.474Z,31.23
2023-01-17T05:49:17.483Z,28.02
2023-01-17T05:51:44.897Z,30.77
2023-01-17T05:54:13.466Z,32.75
2023-01-17T05:56:42.635Z,30.00
2023-01-17T05:59:13.920Z,33.13
2023-01-17T06:01:41.178Z,31.97
2023-01-17T06:04:08.881Z,28.25
2023-01-17T06:06:37.169Z,29.87
2023-01-17T06:09:05.631Z,30.02
2023-01-17T06:11:34.167Z,28.38
2023-01-17T06:14:02.369Z,28.40
2023-01-17T06:16:30.437Z,29.55
2023-01-17T06:18:59.025Z,26.57
2023-01-17T06:21:26.618Z,28.07
2023-01-17T06:23:56.177Z,32.42
2023-01-17T06:26:25.872Z,29.05
2023-01-17T06:28:54.220Z,27.05
2023-01-17T06:31:21.700Z,23.95
2023-01-17T06:33:49.531Z,21.68
2023-01-17T06:36:19.077Z,24.55
2023-01-17T06:38:50.475Z,24.10
2023-01-17T06:41:18.598Z,24.60
2023-01-17T06:43:46.722Z,22.48
2023-01-17T06:46:15.243Z,24.37
2023-01-17T06:48:46.450Z,22.13
2023-01-17T06:51:15.401Z,21.90
2023-01-17T06:53:43.407Z,21.97
2023-01-17T06:56:11.889Z,24.35
2023-01-17T06:58:43.389Z,22.85
2023-01-17T07:01:13.008Z,20.40
2023-01-17T07:03:41.009Z,19.60
2023-01-17T07:06:11.865Z,23.40
2023-01-17T07:08:40.036Z,24.82
2023-01-17T07:11:08.516Z,29.72
2023-01-17T07:13:38.235Z,27.55
2023-01-17T07:16:08.161Z,28.05
2023-01-17T07:18:35.998Z,28.83
2023-01-17T07:21:03.548Z,33.02
2023-01-17T07:23:34.572Z,35.38
2023-01-17T07:26:03.764Z,35.15
2023-01-17T07:28:31.587Z,30.90
2023-01-17T07:30:59.725Z,28.73
2023-01-17T07:33:28.041Z,28.92
2023-01-17T07:35:55.836Z,28.50
2023-01-17T07:38:24.367Z,28.00
2023-01-17T07:40:52.699Z,23.57
2023-01-17T07:43:21.224Z,23.77
2023-01-17T07:45:50.996Z,21.82
2023-01-17T07:48:21.190Z,21.75
2023-01-17T07:51:19.849Z,26.17
2023-01-17T07:53:47.557Z,31.68
2023-01-17T07:56:15.920Z,31.55
2023-01-17T07:58:43.402Z,28.70
2023-01-17T08:01:13.735Z,26.00
2023-01-17T08:03:41.839Z,22.27
2023-01-17T08:06:22.527Z,21.97
2023-01-17T08:08:50.988Z,24.67
2023-01-17T08:11:18.755Z,14.28
2023-01-17T08:13:46.836Z,10.00
2023-01-17T08:16:15.731Z,9.28
2023-01-17T08:18:45.224Z,12.40
2023-01-17T08:21:19.060Z,19.90
2023-01-17T08:23:51.776Z,16.23
2023-01-17T08:26:23.539Z,16.00
2023-01-17T08:29:02.501Z,22.75
2023-01-17T08:31:36.022Z,21.75
2023-01-17T08:34:04.347Z,16.02
2023-01-17T08:36:32.535Z,17.20
2023-01-17T08:39:00.697Z,14.35
2023-01-17T08:41:28.754Z,14.30
2023-01-17T08:43:56.295Z,14.43
2023-01-17T08:46:24.987Z,12.78
2023-01-17T08:48:58.783Z,9.58
2023-01-17T08:51:31.928Z,17.75
2023-01-17T08:54:00.139Z,15.90
2023-01-17T08:56:28.029Z,10.65
2023-01-17T08:58:56.137Z,15.25
2023-01-17T09:01:23.767Z,20.50
2023-01-17T09:03:54.570Z,11.85
2023-01-17T09:06:22.181Z,10.35
2023-01-17T09:08:53.479Z,11.48
2023-01-17T09:11:21.474Z,8.63
2023-01-17T09:13:49.349Z,8.45
2023-01-17T09:16:17.286Z,7.30
2023-01-17T09:18:44.796Z,12.18
2023-01-17T09:21:15.863Z,20.37
2023-01-17T09:23:44.940Z,32.05
2023-01-17T09:26:27.979Z,34.63
2023-01-17T09:28:56.581Z,33.78
2023-01-17T09:31:27.375Z,30.25
2023-01-17T09:33:59.319Z,23.92
2023-01-17T09:36:29.774Z,23.10
2023-01-17T09:39:02.125Z,31.02
2023-01-17T09:41:56.205Z,26.55
2023-01-17T09:44:30.404Z,22.60
2023-01-17T09:47:02.357Z,16.73
2023-01-17T09:49:46.037Z,16.75
2023-01-17T09:52:17.977Z,13.68
2023-01-17T09:54:48.559Z,11.90
2023-01-17T09:57:55.825Z,28.67
2023-01-17T10:00:59.568Z,9.85
2023-01-17T10:03:40.560Z,11.97
2023-01-17T10:06:18.683Z,8.83
2023-01-17T10:09:24.722Z,6.08
2023-01-17T10:12:23.580Z,9.45
2023-01-17T10:14:55.595Z,7.85
2023-01-17T10:17:48.255Z,16.67
2023-01-17T10:20:19.661Z,27.82
2023-01-17T10:23:06.456Z,18.25
2023-01-17T10:25:51.577Z,13.65
2023-01-17T10:28:27.425Z,17.42
2023-01-17T10:31:08.204Z,26.45
2023-01-17T10:34:00.507Z,20.52
2023-01-17T10:36:32.227Z,8.25
2023-01-17T10:39:04.314Z,14.90
2023-01-17T10:41:41.349Z,11.38
2023-01-17T10:44:30.543Z,10.15
2023-01-17T10:47:14.270Z,7.55
2023-01-17T10:49:49.278Z,9.23
2023-01-17T10:52:37.049Z,13.03
2023-01-17T10:55:31.647Z,14.20
2023-01-17T10:57:59.399Z,13.90
2023-01-17T11:00:46.445Z,8.53
2023-01-17T11:03:17.628Z,11.33
2023-01-17T11:05:45.851Z,8.30
2023-01-17T11:08:14.947Z,10.03
2023-01-17T11:10:49.256Z,8.33
2023-01-17T11:13:30.098Z,11.80
2023-01-17T11:16:07.174Z,8.20
2023-01-17T11:18:40.478Z,8.45
2023-01-17T11:21:22.325Z,7.90
2023-01-17T11:23:52.829Z,8.73
2023-01-17T11:26:27.888Z,5.58
2023-01-17T11:29:35.842Z,5.03
2023-01-17T11:32:25.695Z,5.90
2023-01-17T11:35:12.245Z,3.92
2023-01-17T11:37:41.393Z,2.95
2023-01-17T11:40:30.288Z,7.70
2023-01-17T11:43:07.928Z,4.90
2023-01-17T11:45:35.859Z,6.67
2023-01-17T11:48:13.370Z,4.47
2023-01-17T11:50:58.813Z,3.98
2023-01-17T11:53:33.420Z,5.10
2023-01-17T11:56:07.273Z,3.98
2023-01-17T11:58:38.518Z,5.23
2023-01-17T12:01:25.703Z,3.02
2023-01-17T12:04:14.091Z,2.10
2023-01-17T12:07:09.273Z,2.02
2023-01-17T12:12:45.813Z,5.42
2023-01-17T12:15:17.824Z,2.87
2023-01-17T12:18:18.704Z,3.52
2023-01-17T12:21:02.006Z,6.47
2023-01-17T12:23:57.208Z,6.15
2023-01-17T12:29:28.025Z,3.25
2023-01-17T12:32:05.486Z,2.27
2023-01-17T12:34:55.420Z,2.30
2023-01-17T12:37:27.098Z,1.72
2023-01-17T12:40:02.197Z,1.90
2023-01-17T12:45:11.973Z,2.83
2023-01-17T12:47:46.178Z,3.00
2023-01-17T12:50:29.875Z,3.00
2023-01-17T12:53:04.134Z,2.52
2023-01-17T12:55:53.856Z,3.50
2023-01-17T12:58:25.605Z,2.10
2023-01-17T13:01:09.755Z,3.60
2023-01-17T13:04:01.661Z,2.02
2023-01-17T13:06:51.132Z,3.27
2023-01-17T13:09:24.716Z,2.02
2023-01-17T13:12:05.615Z,2.72
2023-01-17T13:14:33.316Z,4.42
2023-01-17T13:17:22.954Z,3.62
2023-01-17T13:20:26.758Z,3.83
2023-01-17T13:22:58.718Z,5.17
2023-01-17T13:25:40.104Z,6.08
2023-01-17T13:28:27.951Z,8.00
2023-01-17T13:31:14.740Z,2.58
2023-01-17T13:33:58.496Z,2.90
2023-01-17T13:36:34.050Z,2.30
2023-01-17T13:39:08.433Z,1.85
2023-01-17T13:41:55.765Z,1.37
2023-01-17T13:44:27.480Z,1.47
2023-01-17T13:46:58.789Z,2.10
2023-01-17T13:49:37.181Z,2.60
2023-01-17T13:52:24.267Z,7.08
2023-01-17T13:55:03.517Z,18.07
2023-01-17T13:57:44.147Z,9.50
2023-01-17T14:00:23.986Z,10.28
2023-01-17T14:02:55.217Z,8.18
2023-01-17T14:05:41.315Z,8.78
2023-01-17T14:08:15.906Z,10.20
2023-01-17T14:10:56.157Z,10.08
2023-01-17T14:13:39.211Z,10.72
2023-01-17T14:16:25.490Z,8.33
2023-01-17T14:18:59.194Z,5.80
2023-01-17T14:21:31.751Z,5.37
2023-01-17T14:24:13.540Z,7.03
2023-01-17T14:26:48.394Z,6.85
2023-01-17T14:32:06.172Z,5.33
2023-01-17T14:34:35.278Z,9.75
2023-01-17T14:39:49.497Z,10.05
2023-01-17T14:42:21.088Z,8.55
2023-01-17T14:44:51.613Z,10.30
2023-01-17T14:47:20.217Z,16.97
2023-01-17T14:49:48.285Z,12.58
2023-01-17T14:52:18.807Z,12.78
2023-01-17T14:54:53.445Z,8.30
2023-01-17T14:57:29.249Z,9.50
2023-01-17T15:00:21.247Z,8.68
2023-01-17T15:02:50.895Z,11.80
2023-01-17T15:05:22.530Z,11.33
2023-01-17T15:07:53.149Z,7.85
2023-01-17T15:10:25.089Z,10.10
2023-01-17T15:12:53.747Z,14.18
2023-01-17T15:15:35.672Z,14.58
2023-01-17T15:18:19.862Z,12.88
2023-01-17T15:20:57.529Z,11.47
2023-01-17T15:23:31.008Z,12.43
2023-01-17T15:26:03.759Z,12.45
2023-01-17T15:28:33.967Z,12.98
2023-01-17T15:31:05.209Z,10.68
2023-01-17T15:33:34.965Z,9.65
2023-01-17T15:36:19.034Z,7.85
2023-01-17T15:38:56.230Z,10.03
2023-01-17T15:41:26.622Z,11.03
2023-01-17T15:43:56.007Z,21.23
2023-01-17T15:46:33.337Z,11.33
2023-01-17T15:49:12.664Z,10.28
2023-01-17T15:51:45.764Z,12.33
2023-01-17T15:54:28.152Z,10.50
2023-01-17T15:57:14.472Z,8.50
2023-01-17T15:59:55.240Z,14.83
2023-01-17T16:02:35.878Z,12.30
2023-01-17T16:05:07.617Z,21.77
2023-01-17T16:07:37.012Z,16.48
2023-01-17T16:10:27.805Z,17.62
2023-01-17T16:12:57.765Z,11.20
2023-01-17T16:15:27.225Z,9.53
2023-01-17T16:17:58.212Z,12.88
2023-01-17T16:20:33.448Z,9.18
2023-01-17T16:23:02.348Z,10.50
2023-01-17T16:25:32.024Z,10.78
2023-01-17T16:28:01.154Z,10.90
2023-01-17T16:30:33.295Z,7.75
2023-01-17T16:33:01.463Z,10.75
2023-01-17T16:35:33.980Z,9.43
2023-01-17T16:38:06.311Z,9.30
2023-01-17T16:40:40.219Z,12.58
2023-01-17T16:43:07.772Z,10.60
2023-01-17T16:45:44.133Z,10.85
2023-01-17T16:48:12.863Z,13.08
2023-01-17T16:50:42.508Z,12.23
2023-01-17T16:53:13.281Z,9.65
2023-01-17T16:55:43.140Z,9.53
2023-01-17T16:58:11.691Z,12.65
2023-01-17T17:00:41.903Z,10.08
2023-01-17T17:03:13.555Z,11.78
2023-01-17T17:05:41.656Z,13.25
2023-01-17T17:08:09.379Z,10.95
2023-01-17T17:10:38.154Z,16.57
2023-01-17T17:13:06.037Z,15.55
2023-01-17T17:15:33.814Z,14.20
2023-01-17T17:18:02.347Z,11.73
2023-01-17T17:20:30.207Z,10.45
2023-01-17T17:22:58.212Z,11.05
2023-01-17T17:25:25.839Z,11.22
2023-01-17T17:27:53.462Z,10.63
2023-01-17T17:30:21.231Z,12.88
2023-01-17T17:32:49.084Z,12.35
2023-01-17T17:35:17.403Z,8.05
2023-01-17T17:37:45.288Z,7.58
2023-01-17T17:40:13.771Z,7.50
2023-01-17T17:42:43.215Z,8.03
2023-01-17T17:45:12.043Z,8.28
2023-01-17T17:47:39.866Z,9.03
2023-01-17T17:50:09.954Z,10.32
2023-01-17T17:52:39.209Z,7.45
2023-01-17T17:55:08.015Z,6.40
2023-01-17T17:57:36.133Z,7.35
2023-01-17T18:00:06.304Z,7.47
2023-01-17T18:02:34.250Z,8.45
2023-01-17T18:05:03.263Z,6.33
2023-01-17T18:07:32.547Z,4.87
2023-01-17T18:10:00.322Z,6.03
2023-01-17T18:12:28.103Z,5.33
2023-01-17T18:14:55.960Z,6.28
2023-01-17T18:17:25.684Z,4.42
2023-01-17T18:19:56.697Z,6.12
2023-01-17T18:22:25.128Z,5.35
2023-01-17T18:24:52.967Z,4.53
2023-01-17T18:27:20.672Z,8.58
2023-01-17T18:29:49.720Z,4.50
2023-01-17T18:32:17.544Z,9.20
2023-01-17T18:34:45.324Z,8.05
2023-01-17T18:37:16.680Z,9.88
2023-01-17T18:39:45.134Z,7.42
2023-01-17T18:42:13.163Z,7.10
2023-01-17T18:44:40.924Z,6.25
2023-01-17T18:47:10.271Z,9.15
2023-01-17T18:49:38.288Z,9.00
2023-01-17T18:52:08.987Z,7.72
2023-01-17T18:54:37.524Z,7.37
2023-01-17T18:57:05.532Z,6.60
2023-01-17T18:59:33.692Z,7.47
2023-01-17T19:02:01.693Z,7.85
2023-01-17T19:04:32.804Z,9.10
2023-01-17T19:07:01.121Z,11.12
2023-01-17T19:09:28.846Z,7.62
2023-01-17T19:12:00.448Z,10.40
2023-01-17T19:14:30.584Z,10.18
2023-01-17T19:16:58.134Z,12.43
2023-01-17T19:19:26.159Z,8.50
2023-01-17T19:21:54.172Z,13.00
2023-01-17T19:24:24.864Z,12.63
2023-01-17T19:26:53.641Z,14.00
2023-01-17T19:29:22.739Z,13.75
2023-01-17T19:31:51.386Z,10.63
2023-01-17T19:34:20.578Z,9.15
2023-01-17T19:36:48.782Z,10.10
2023-01-17T19:39:16.702Z,9.05
2023-01-17T19:41:47.438Z,10.23
2023-01-17T19:44:15.342Z,12.40
2023-01-17T19:46:44.921Z,15.00
2023-01-17T19:49:13.110Z,14.80
2023-01-17T19:51:41.136Z,17.67
2023-01-17T19:54:10.286Z,16.80
2023-01-17T19:56:39.420Z,15.63
2023-01-17T19:59:08.303Z,14.95
2023-01-17T20:01:36.785Z,18.82
2023-01-17T20:04:05.088Z,13.85
2023-01-17T20:06:54.429Z,39.42
2023-01-17T20:09:24.070Z,16.40
2023-01-17T20:11:52.573Z,13.22
2023-01-17T20:14:20.834Z,11.45
2023-01-17T20:16:49.858Z,10.65
2023-01-17T20:19:17.429Z,11.57
2023-01-17T20:21:45.318Z,12.20
2023-01-17T20:24:15.612Z,11.15
2023-01-17T20:26:44.690Z,14.75
2023-01-17T20:29:15.062Z,11.50
2023-01-17T20:31:52.813Z,14.28
2023-01-17T20:34:21.268Z,18.62
2023-01-17T20:36:49.352Z,14.38
2023-01-17T20:39:17.565Z,12.98
2023-01-17T20:41:46.680Z,15.13
2023-01-17T20:44:16.108Z,14.38
2023-01-17T20:46:44.607Z,16.00
2023-01-17T20:49:15.585Z,15.53
2023-01-17T20:51:44.961Z,16.42
2023-01-17T20:54:15.591Z,13.20
2023-01-17T20:56:47.940Z,12.50
2023-01-17T20:59:18.357Z,14.13
2023-01-17T21:01:47.108Z,13.40
2023-01-17T21:04:15.247Z,14.87
2023-01-17T21:06:44.402Z,17.23
2023-01-17T21:09:15.265Z,13.75
2023-01-17T21:11:43.023Z,17.20
2023-01-17T21:14:11.257Z,14.58
2023-01-17T21:16:39.549Z,29.63
2023-01-17T21:19:09.118Z,33.25
2023-01-17T21:21:36.838Z,32.83
2023-01-17T21:24:05.564Z,35.23
2023-01-17T21:26:33.882Z,51.90
2023-01-17T21:29:02.622Z,96.32
2023-01-17T21:31:33.435Z,32.13
2023-01-17T21:34:06.859Z,19.80
2023-01-17T21:36:37.238Z,23.38
2023-01-17T21:39:15.989Z,19.85
2023-01-17T21:41:46.498Z,17.42
2023-01-17T21:44:22.821Z,16.07
2023-01-17T21:46:56.310Z,16.37
2023-01-17T21:49:23.976Z,19.15
2023-01-17T21:51:56.084Z,17.42
2023-01-17T21:54:47.641Z,20.15
2023-01-17T21:57:37.644Z,21.10
2023-01-17T22:00:07.343Z,20.35
2023-01-17T22:05:30.289Z,23.07
2023-01-17T22:08:14.624Z,23.98
2023-01-17T22:10:46.007Z,19.02
2023-01-17T22:13:19.048Z,18.55
2023-01-17T22:15:48.826Z,22.20
2023-01-17T22:18:16.969Z,18.80
2023-01-17T22:20:44.574Z,18.05
2023-01-17T22:23:12.982Z,18.95
2023-01-17T22:25:40.893Z,17.40
2023-01-17T22:28:08.811Z,18.70
2023-01-17T22:30:37.614Z,21.60
2023-01-17T22:33:05.483Z,16.93
2023-01-17T22:35:34.095Z,14.15
2023-01-17T22:38:01.845Z,15.13
2023-01-17T22:40:29.533Z,17.95
2023-01-17T22:42:57.490Z,18.60
2023-01-17T22:45:27.085Z,20.48
2023-01-17T22:47:55.219Z,22.52
2023-01-17T22:50:23.965Z,23.92
2023-01-17T22:52:52.092Z,20.43
2023-01-17T22:55:21.686Z,22.32
2023-01-17T22:57:49.291Z,21.33
2023-01-17T23:00:21.054Z,21.57
2023-01-17T23:02:52.088Z,21.20
2023-01-17T23:05:20.732Z,31.80
2023-01-17T23:07:50.668Z,22.02
2023-01-17T23:10:36.810Z,20.08
2023-01-17T23:13:04.510Z,22.32
2023-01-17T23:15:51.600Z,22.48
2023-01-17T23:18:40.643Z,23.67
2023-01-17T23:21:09.169Z,30.62
2023-01-17T23:23:37.491Z,25.32
2023-01-17T23:26:05.629Z,21.73
2023-01-17T23:28:34.036Z,26.42
2023-01-17T23:31:05.106Z,24.18
2023-01-17T23:33:33.062Z,20.60
2023-01-17T23:36:00.693Z,23.55
2023-01-17T23:38:33.397Z,21.07
2023-01-17T23:41:22.948Z,20.97
2023-01-17T23:43:55.924Z,20.55
2023-01-17T23:46:25.550Z,21.48
2023-01-17T23:48:56.694Z,22.00
2023-01-17T23:51:24.457Z,20.82
2023-01-17T23:53:55.452Z,21.00
2023-01-17T23:56:24.994Z,23.15
2023-01-17T23:58:52.987Z,20.72
